createdAt,value
2018-08-20T00:00:25.174Z,99.99
2018-08-20T00:01:25.786Z,99.99
2018-08-20T00:02:25.173Z,99.99
2018-08-20T00:03:25.125Z,99.99
2018-08-20T00:04:25.764Z,99.99
2018-08-20T00:05:25.760Z,99.99
2018-08-20T00:06:25.081Z,99.99
2018-08-20T00:07:25.760Z,99.99
2018-08-20T00:08:25.762Z,99.99
2018-08-20T00:09:24.954Z,99.99
2018-08-20T00:10:24.926Z,99.99
2018-08-20T00:11:25.337Z,99.99
2018-08-20T00:12:24.879Z,99.99
2018-08-20T00:13:25.764Z,99.99
2018-08-20T00:14:25.669Z,99.99
2018-08-20T00:15:25.772Z,99.99
2018-08-20T00:16:24.824Z,99.99
2018-08-20T00:17:25.262Z,99.99
2018-08-20T00:18:25.262Z,99.99
2018-08-20T00:19:24.821Z,99.99
2018-08-20T00:20:24.731Z,99.99
2018-08-20T00:21:27.288Z,99.99
2018-08-20T00:22:25.264Z,99.99
2018-08-20T00:23:25.262Z,99.99
2018-08-20T00:24:24.812Z,99.99
2018-08-20T00:25:24.821Z,99.99
2018-08-20T00:26:25.320Z,99.99
2018-08-20T00:27:25.273Z,99.99
2018-08-20T00:28:25.267Z,99.99
2018-08-20T00:29:24.453Z,99.99
2018-08-20T00:30:24.472Z,99.99
2018-08-20T00:31:24.819Z,99.99
2018-08-20T00:32:24.376Z,99.99
2018-08-20T00:33:24.828Z,99.99
2018-08-20T00:34:24.329Z,99.99
2018-08-20T00:35:24.303Z,99.99
2018-08-20T00:36:24.302Z,99.99
2018-08-20T00:37:24.254Z,99.99
2018-08-20T00:38:24.233Z,99.99
2018-08-20T00:39:24.202Z,99.99
2018-08-20T00:40:24.765Z,99.99
2018-08-20T00:41:24.327Z,99.99
2018-08-20T00:42:24.174Z,99.99
2018-08-20T00:43:24.766Z,99.99
2018-08-20T00:44:24.078Z,99.99
2018-08-20T00:45:24.771Z,99.99
2018-08-20T00:46:24.031Z,99.99
2018-08-20T00:47:24.028Z,99.99
2018-08-20T00:48:24.769Z,99.99
2018-08-20T00:49:24.786Z,99.99
2018-08-20T00:50:23.931Z,99.99
2018-08-20T00:51:23.929Z,99.99
2018-08-20T00:52:23.880Z,99.99
2018-08-20T00:53:23.852Z,99.99
2018-08-20T00:54:24.772Z,99.99
2018-08-20T00:55:23.837Z,99.99
2018-08-20T00:56:23.796Z,99.99
2018-08-20T00:57:23.753Z,99.99
2018-08-20T00:58:23.728Z,99.99
2018-08-20T00:59:23.702Z,99.99
2018-08-20T01:00:24.274Z,99.99
2018-08-20T01:01:23.695Z,99.99
2018-08-20T01:02:23.625Z,99.99
2018-08-20T01:03:23.602Z,99.99
2018-08-20T01:04:23.619Z,99.99
2018-08-20T01:05:24.272Z,99.99
2018-08-20T01:06:23.525Z,99.99
2018-08-20T01:07:23.562Z,99.99
2018-08-20T01:08:23.477Z,99.99
2018-08-20T01:09:24.281Z,99.99
2018-08-20T01:10:23.587Z,99.99
2018-08-20T01:11:23.401Z,99.99
2018-08-20T01:12:23.426Z,99.99
2018-08-20T01:13:23.348Z,99.99
2018-08-20T01:14:24.276Z,99.99
2018-08-20T01:15:24.273Z,99.99
2018-08-20T01:16:23.776Z,99.99
2018-08-20T01:17:23.349Z,99.99
2018-08-20T01:18:23.249Z,99.99
2018-08-20T01:19:23.778Z,99.99
2018-08-20T01:20:23.171Z,99.99
2018-08-20T01:21:23.145Z,99.99
2018-08-20T01:22:23.177Z,99.99
2018-08-20T01:23:23.777Z,99.99
2018-08-20T01:24:23.778Z,99.99
2018-08-20T01:25:23.045Z,99.99
2018-08-20T01:26:23.020Z,99.99
2018-08-20T01:27:23.331Z,99.99
2018-08-20T01:28:23.779Z,99.99
2018-08-20T01:29:22.949Z,99.99
2018-08-20T01:30:22.919Z,99.99
2018-08-20T01:31:22.920Z,99.99
2018-08-20T01:32:23.313Z,99.99
2018-08-20T01:33:22.845Z,99.99
2018-08-20T01:34:22.867Z,99.99
2018-08-20T01:35:23.782Z,99.99
2018-08-20T01:36:23.278Z,99.99
2018-08-20T01:37:22.785Z,99.99
2018-08-20T01:38:22.730Z,99.99
2018-08-20T01:39:22.695Z,99.99
2018-08-20T01:40:22.830Z,99.99
2018-08-20T01:41:23.283Z,99.99
2018-08-20T01:42:22.641Z,99.99
2018-08-20T01:43:22.589Z,99.99
2018-08-20T01:44:22.565Z,99.99
2018-08-20T01:45:23.280Z,99.99
2018-08-20T01:46:22.512Z,99.99
2018-08-20T01:47:22.836Z,99.99
2018-08-20T01:48:23.280Z,99.99
2018-08-20T01:49:23.279Z,99.99
2018-08-20T01:50:22.414Z,99.99
2018-08-20T01:51:22.427Z,99.99
2018-08-20T01:52:22.833Z,99.99
2018-08-20T01:53:22.337Z,99.99
2018-08-20T01:54:23.281Z,99.99
2018-08-20T01:55:23.284Z,99.99
2018-08-20T01:56:22.260Z,99.99
2018-08-20T01:57:22.329Z,99.99
2018-08-20T01:58:22.790Z,99.99
2018-08-20T01:59:22.186Z,99.99
2018-08-20T02:00:22.160Z,99.99
2018-08-20T02:01:22.183Z,99.99
2018-08-20T02:02:22.339Z,99.99
2018-08-20T02:03:22.783Z,99.99
2018-08-20T02:04:22.063Z,99.99
2018-08-20T02:05:22.036Z,99.99
2018-08-20T02:06:22.790Z,99.99
2018-08-20T02:07:22.339Z,99.99
2018-08-20T02:08:21.960Z,99.99
2018-08-20T02:09:21.981Z,99.99
2018-08-20T02:10:22.785Z,99.99
2018-08-20T02:11:21.888Z,99.99
2018-08-20T02:12:21.857Z,99.99
2018-08-20T02:13:22.339Z,99.99
2018-08-20T02:14:21.806Z,99.99
2018-08-20T02:15:21.786Z,99.99
2018-08-20T02:16:22.291Z,99.99
2018-08-20T02:17:21.784Z,99.99
2018-08-20T02:18:22.346Z,99.99
2018-08-20T02:19:21.682Z,99.99
2018-08-20T02:20:21.841Z,99.99
2018-08-20T02:21:22.289Z,99.99
2018-08-20T02:22:21.607Z,99.99
2018-08-20T02:23:21.624Z,99.99
2018-08-20T02:24:21.554Z,99.99
2018-08-20T02:25:21.844Z,99.99
2018-08-20T02:26:21.507Z,99.99
2018-08-20T02:27:21.477Z,99.99
2018-08-20T02:28:21.493Z,99.99
2018-08-20T02:29:22.289Z,99.99
2018-08-20T02:30:21.877Z,99.99
2018-08-20T02:31:22.294Z,99.99
2018-08-20T02:32:21.358Z,99.99
2018-08-20T02:33:21.327Z,99.99
2018-08-20T02:34:22.292Z,99.99
2018-08-20T02:35:21.317Z,99.99
2018-08-20T02:36:21.247Z,99.99
2018-08-20T02:37:21.796Z,99.99
2018-08-20T02:38:21.816Z,99.99
2018-08-20T02:39:21.229Z,99.99
2018-08-20T02:40:21.802Z,99.99
2018-08-20T02:41:21.800Z,99.99
2018-08-20T02:42:21.098Z,99.99
2018-08-20T02:43:21.074Z,99.99
2018-08-20T02:44:21.094Z,99.99
2018-08-20T02:45:21.346Z,99.99
2018-08-20T02:46:20.995Z,99.99
2018-08-20T02:47:20.976Z,99.99
2018-08-20T02:48:20.944Z,99.99
2018-08-20T02:49:20.918Z,99.99
2018-08-20T02:50:20.942Z,99.99
2018-08-20T02:51:21.795Z,99.99
2018-08-20T02:52:21.798Z,99.99
2018-08-20T02:53:21.803Z,99.99
2018-08-20T02:54:20.792Z,99.99
2018-08-20T02:55:20.851Z,99.99
2018-08-20T02:56:20.739Z,99.99
2018-08-20T02:57:20.848Z,99.99
2018-08-20T02:58:20.863Z,99.99
2018-08-20T02:59:20.663Z,99.99
2018-08-20T03:00:20.639Z,99.99
2018-08-20T03:01:21.300Z,99.99
2018-08-20T03:02:20.852Z,99.99
2018-08-20T03:03:20.562Z,99.99
2018-08-20T03:04:20.534Z,99.99
2018-08-20T03:05:20.853Z,99.99
2018-08-20T03:06:21.298Z,99.99
2018-08-20T03:07:20.862Z,99.99
2018-08-20T03:08:21.296Z,99.99
2018-08-20T03:09:20.418Z,99.99
2018-08-20T03:10:20.384Z,99.99
2018-08-20T03:11:20.832Z,99.99
2018-08-20T03:12:21.299Z,99.99
2018-08-20T03:13:20.351Z,99.99
2018-08-20T03:14:20.282Z,99.99
2018-08-20T03:15:20.256Z,99.99
2018-08-20T03:16:20.242Z,99.99
2018-08-20T03:17:20.374Z,99.99
2018-08-20T03:18:20.801Z,99.99
2018-08-20T03:19:20.153Z,99.99
2018-08-20T03:20:20.808Z,99.99
2018-08-20T03:21:20.100Z,99.99
2018-08-20T03:22:20.120Z,99.99
2018-08-20T03:23:20.801Z,99.99
2018-08-20T03:24:20.026Z,99.99
2018-08-20T03:25:20.355Z,99.99
2018-08-20T03:26:19.974Z,99.99
2018-08-20T03:27:19.950Z,99.99
2018-08-20T03:28:20.374Z,99.99
2018-08-20T03:29:19.897Z,99.99
2018-08-20T03:30:19.874Z,99.99
2018-08-20T03:31:20.807Z,99.99
2018-08-20T03:32:19.836Z,99.99
2018-08-20T03:33:19.838Z,99.99
2018-08-20T03:34:19.818Z,99.99
2018-08-20T03:35:19.809Z,99.99
2018-08-20T03:36:19.722Z,99.99
2018-08-20T03:37:19.697Z,99.99
2018-08-20T03:38:19.673Z,99.99
2018-08-20T03:39:19.646Z,99.99
2018-08-20T03:40:19.664Z,99.99
2018-08-20T03:41:20.308Z,99.99
2018-08-20T03:42:19.565Z,99.99
2018-08-20T03:43:19.544Z,99.99
2018-08-20T03:44:19.538Z,99.99
2018-08-20T03:45:22.307Z,99.99
2018-08-20T03:46:20.307Z,99.99
2018-08-20T03:47:19.445Z,99.99
2018-08-20T03:48:19.895Z,99.99
2018-08-20T03:49:20.310Z,99.99
2018-08-20T03:50:19.861Z,99.99
2018-08-20T03:51:19.339Z,99.99
2018-08-20T03:52:19.316Z,99.99
2018-08-20T03:53:19.286Z,99.99
2018-08-20T03:54:19.265Z,99.99
2018-08-20T03:55:19.415Z,99.99
2018-08-20T03:56:19.210Z,99.99
2018-08-20T03:57:19.808Z,99.99
2018-08-20T03:58:19.809Z,99.99
2018-08-20T03:59:19.139Z,99.99
2018-08-20T04:00:19.813Z,99.99
2018-08-20T04:01:19.082Z,99.99
2018-08-20T04:02:19.055Z,99.99
2018-08-20T04:03:19.036Z,99.99
2018-08-20T04:04:19.018Z,99.99
2018-08-20T04:05:19.718Z,99.99
2018-08-20T04:06:19.000Z,99.99
2018-08-20T04:07:18.936Z,99.99
2018-08-20T04:08:19.813Z,99.99
2018-08-20T04:09:18.879Z,99.99
2018-08-20T04:10:19.810Z,99.99
2018-08-20T04:11:19.365Z,99.99
2018-08-20T04:12:18.801Z,99.99
2018-08-20T04:13:19.312Z,99.99
2018-08-20T04:14:18.751Z,99.99
2018-08-20T04:15:19.322Z,99.99
2018-08-20T04:16:18.863Z,99.99
2018-08-20T04:17:18.679Z,99.99
2018-08-20T04:18:19.312Z,99.99
2018-08-20T04:19:19.314Z,99.99
2018-08-20T04:20:18.605Z,99.99
2018-08-20T04:21:18.594Z,99.99
2018-08-20T04:22:19.315Z,99.99
2018-08-20T04:23:18.523Z,99.99
2018-08-20T04:24:18.543Z,99.99
2018-08-20T04:25:19.313Z,99.99
2018-08-20T04:26:19.314Z,99.99
2018-08-20T04:27:18.873Z,99.99
2018-08-20T04:28:18.870Z,99.99
2018-08-20T04:29:18.386Z,99.99
2018-08-20T04:30:19.317Z,99.99
2018-08-20T04:31:19.316Z,99.99
2018-08-20T04:32:18.341Z,99.99
2018-08-20T04:33:18.327Z,99.99
2018-08-20T04:34:18.283Z,99.99
2018-08-20T04:35:18.876Z,99.99
2018-08-20T04:36:18.229Z,99.99
2018-08-20T04:37:18.814Z,99.99
2018-08-20T04:38:18.214Z,99.99
2018-08-20T04:39:18.115Z,99.99
2018-08-20T04:40:18.821Z,99.99
2018-08-20T04:41:18.821Z,99.99
2018-08-20T04:42:18.156Z,99.99
2018-08-20T04:43:18.876Z,99.99
2018-08-20T04:44:17.992Z,99.99
2018-08-20T04:45:17.966Z,99.99
2018-08-20T04:46:18.008Z,99.99
2018-08-20T04:47:17.916Z,99.99
2018-08-20T04:48:17.935Z,99.99
2018-08-20T04:49:17.868Z,99.99
2018-08-20T04:50:18.039Z,99.99
2018-08-20T04:51:17.965Z,99.99
2018-08-20T04:52:18.349Z,99.99
2018-08-20T04:53:17.819Z,99.99
2018-08-20T04:54:18.319Z,99.99
2018-08-20T04:55:18.329Z,99.99
2018-08-20T04:56:17.692Z,99.99
2018-08-20T04:57:17.712Z,99.99
2018-08-20T04:58:18.320Z,99.99
2018-08-20T04:59:17.619Z,99.99
2018-08-20T05:00:17.637Z,99.99
2018-08-20T05:01:17.568Z,99.99
2018-08-20T05:02:17.601Z,99.99
2018-08-20T05:03:17.524Z,99.99
2018-08-20T05:04:17.494Z,99.99
2018-08-20T05:05:17.474Z,99.99
2018-08-20T05:06:17.443Z,99.99
2018-08-20T05:07:17.890Z,99.99
2018-08-20T05:08:17.404Z,99.99
2018-08-20T05:09:17.428Z,99.99
2018-08-20T05:10:17.343Z,99.99
2018-08-20T05:11:17.320Z,99.99
2018-08-20T05:12:17.836Z,99.99
2018-08-20T05:13:17.273Z,99.99
2018-08-20T05:14:17.294Z,99.99
2018-08-20T05:15:17.829Z,99.99
2018-08-20T05:16:17.827Z,99.99
2018-08-20T05:17:17.172Z,99.99
2018-08-20T05:18:17.836Z,99.99
2018-08-20T05:19:17.167Z,99.99
2018-08-20T05:20:17.379Z,99.99
2018-08-20T05:21:17.827Z,99.05
2018-08-20T05:22:17.095Z,98.86
2018-08-20T05:23:17.828Z,98.72
2018-08-20T05:24:17.053Z,98.48
2018-08-20T05:25:17.830Z,98.14
2018-08-20T05:26:17.383Z,97.57
2018-08-20T05:27:17.828Z,97.76
2018-08-20T05:28:17.830Z,97.47
2018-08-20T05:29:16.907Z,97.38
2018-08-20T05:30:17.830Z,97.09
2018-08-20T05:31:16.888Z,96.03
2018-08-20T05:32:16.818Z,95.79
2018-08-20T05:33:16.795Z,95.79
2018-08-20T05:34:16.781Z,95.89
2018-08-20T05:35:16.747Z,95.60
2018-08-20T05:36:16.768Z,95.12
2018-08-20T05:37:16.714Z,95.12
2018-08-20T05:38:16.731Z,94.88
2018-08-20T05:39:16.656Z,92.76
2018-08-20T05:40:16.633Z,92.67
2018-08-20T05:41:16.664Z,92.57
2018-08-20T05:42:16.632Z,92.57
2018-08-20T05:43:16.565Z,92.09
2018-08-20T05:44:16.546Z,91.36
2018-08-20T05:45:16.560Z,90.89
2018-08-20T05:46:16.547Z,90.31
2018-08-20T05:47:16.618Z,90.12
2018-08-20T05:48:16.454Z,89.83
2018-08-20T05:49:16.443Z,88.96
2018-08-20T05:50:16.409Z,88.43
2018-08-20T05:51:16.384Z,87.66
2018-08-20T05:52:16.446Z,87.56
2018-08-20T05:53:16.363Z,87.56
2018-08-20T05:54:16.320Z,87.08
2018-08-20T05:55:16.297Z,87.37
2018-08-20T05:56:16.314Z,86.69
2018-08-20T05:57:16.311Z,86.45
2018-08-20T05:58:16.235Z,85.97
2018-08-20T05:59:16.257Z,85.58
2018-08-20T06:00:16.834Z,83.95
2018-08-20T06:01:16.174Z,84.05
2018-08-20T06:02:16.394Z,83.99
2018-08-20T06:03:16.127Z,84.18
2018-08-20T06:04:16.103Z,83.99
2018-08-20T06:05:16.086Z,83.31
2018-08-20T06:06:16.058Z,82.45
2018-08-20T06:07:16.078Z,82.78
2018-08-20T06:08:16.844Z,81.81
2018-08-20T06:09:16.010Z,81.14
2018-08-20T06:10:15.975Z,81.72
2018-08-20T06:11:15.953Z,81.24
2018-08-20T06:12:16.031Z,80.94
2018-08-20T06:13:15.914Z,80.76
2018-08-20T06:14:15.938Z,80.60
2018-08-20T06:15:15.881Z,80.60
2018-08-20T06:16:15.852Z,80.41
2018-08-20T06:17:15.828Z,80.51
2018-08-20T06:18:15.806Z,80.02
2018-08-20T06:19:15.831Z,80.12
2018-08-20T06:20:15.765Z,79.58
2018-08-20T06:21:15.744Z,79.68
2018-08-20T06:22:15.808Z,79.64
2018-08-20T06:23:15.704Z,79.39
2018-08-20T06:24:15.731Z,79.10
2018-08-20T06:25:15.659Z,78.42
2018-08-20T06:26:15.646Z,78.56
2018-08-20T06:27:15.667Z,77.88
2018-08-20T06:28:15.604Z,78.08
2018-08-20T06:29:15.578Z,78.08
2018-08-20T06:30:15.577Z,77.78
2018-08-20T06:31:15.538Z,77.40
2018-08-20T06:32:15.560Z,77.01
2018-08-20T06:33:15.542Z,76.57
2018-08-20T06:34:16.345Z,76.57
2018-08-20T06:35:15.460Z,76.47
2018-08-20T06:36:15.436Z,75.89
2018-08-20T06:37:15.420Z,76.09
2018-08-20T06:38:15.439Z,74.93
2018-08-20T06:39:15.447Z,75.12
2018-08-20T06:40:15.358Z,74.83
2018-08-20T06:41:15.357Z,74.87
2018-08-20T06:42:15.317Z,74.96
2018-08-20T06:43:15.400Z,74.77
2018-08-20T06:44:15.316Z,74.96
2018-08-20T06:45:15.257Z,75.06
2018-08-20T06:46:15.237Z,75.06
2018-08-20T06:47:15.217Z,74.29
2018-08-20T06:48:15.197Z,75.16
2018-08-20T06:49:15.222Z,74.58
2018-08-20T06:50:15.153Z,74.58
2018-08-20T06:51:15.851Z,73.90
2018-08-20T06:52:15.114Z,73.90
2018-08-20T06:53:15.139Z,73.55
2018-08-20T06:54:15.082Z,73.55
2018-08-20T06:55:15.093Z,72.68
2018-08-20T06:56:15.039Z,72.68
2018-08-20T06:57:15.016Z,72.30
2018-08-20T06:58:15.044Z,73.20
2018-08-20T06:59:14.976Z,72.49
2018-08-20T07:00:14.962Z,71.75
2018-08-20T07:01:14.935Z,72.14
2018-08-20T07:02:14.921Z,72.04
2018-08-20T07:03:14.935Z,71.84
2018-08-20T07:04:14.924Z,72.17
2018-08-20T07:05:14.902Z,72.08
2018-08-20T07:06:14.894Z,71.88
2018-08-20T07:07:14.820Z,71.50
2018-08-20T07:08:14.798Z,71.40
2018-08-20T07:09:14.779Z,70.82
2018-08-20T07:10:14.805Z,70.82
2018-08-20T07:11:14.745Z,70.14
2018-08-20T07:12:14.722Z,70.24
2018-08-20T07:13:14.700Z,70.56
2018-08-20T07:14:14.689Z,69.50
2018-08-20T07:15:14.708Z,68.82
2018-08-20T07:16:14.648Z,69.98
2018-08-20T07:17:14.625Z,70.18
2018-08-20T07:18:14.613Z,69.69
2018-08-20T07:19:14.587Z,68.91
2018-08-20T07:20:14.607Z,69.73
2018-08-20T07:21:14.547Z,68.85
2018-08-20T07:22:14.533Z,69.73
2018-08-20T07:23:14.557Z,70.11
2018-08-20T07:24:14.501Z,69.82
2018-08-20T07:25:14.472Z,70.11
2018-08-20T07:26:14.503Z,69.92
2018-08-20T07:27:15.367Z,69.82
2018-08-20T07:28:14.415Z,69.82
2018-08-20T07:29:14.396Z,69.92
2018-08-20T07:30:14.381Z,70.11
2018-08-20T07:31:14.404Z,69.92
2018-08-20T07:32:14.346Z,70.01
2018-08-20T07:33:14.368Z,69.34
2018-08-20T07:34:14.321Z,70.01
2018-08-20T07:35:14.291Z,70.11
2018-08-20T07:36:14.266Z,69.98
2018-08-20T07:37:14.294Z,69.98
2018-08-20T07:38:14.225Z,70.56
2018-08-20T07:39:14.212Z,70.86
2018-08-20T07:40:14.188Z,70.66
2018-08-20T07:41:14.873Z,70.95
2018-08-20T07:42:14.190Z,71.53
2018-08-20T07:43:14.175Z,71.62
2018-08-20T07:44:14.111Z,71.82
2018-08-20T07:45:14.104Z,71.44
2018-08-20T07:46:14.116Z,71.24
2018-08-20T07:47:14.062Z,72.02
2018-08-20T07:48:14.079Z,71.69
2018-08-20T07:49:14.027Z,72.08
2018-08-20T07:50:13.997Z,71.59
2018-08-20T07:51:13.982Z,72.66
2018-08-20T07:52:13.960Z,72.66
2018-08-20T07:53:14.440Z,72.46
2018-08-20T07:54:13.921Z,72.95
2018-08-20T07:55:13.912Z,72.95
2018-08-20T07:56:13.886Z,72.75
2018-08-20T07:57:13.878Z,72.66
2018-08-20T07:58:13.974Z,72.46
2018-08-20T07:59:14.374Z,72.36
2018-08-20T08:00:14.373Z,72.95
2018-08-20T08:01:13.829Z,72.85
2018-08-20T08:02:13.770Z,72.56
2018-08-20T08:03:13.746Z,71.82
2018-08-20T08:04:13.781Z,72.36
2018-08-20T08:05:13.708Z,72.56
2018-08-20T08:06:13.694Z,73.04
2018-08-20T08:07:13.685Z,73.33
2018-08-20T08:08:13.661Z,73.43
2018-08-20T08:09:13.682Z,73.63
2018-08-20T08:10:13.660Z,72.95
2018-08-20T08:11:13.616Z,72.56
2018-08-20T08:12:13.571Z,72.95
2018-08-20T08:13:13.559Z,72.95
2018-08-20T08:14:13.644Z,72.36
2018-08-20T08:15:13.568Z,71.82
2018-08-20T08:16:13.501Z,72.46
2018-08-20T08:17:13.538Z,72.75
2018-08-20T08:18:13.458Z,71.72
2018-08-20T08:19:13.440Z,72.40
2018-08-20T08:20:14.398Z,72.69
2018-08-20T08:21:13.444Z,72.40
2018-08-20T08:22:13.436Z,72.69
2018-08-20T08:23:13.881Z,71.92
2018-08-20T08:24:13.345Z,71.53
2018-08-20T08:25:13.326Z,71.44
2018-08-20T08:26:13.381Z,71.14
2018-08-20T08:27:13.309Z,71.66
2018-08-20T08:28:13.283Z,70.89
2018-08-20T08:29:13.256Z,71.47
2018-08-20T08:30:13.231Z,70.89
2018-08-20T08:31:13.255Z,70.11
2018-08-20T08:32:13.231Z,70.50
2018-08-20T08:33:13.172Z,71.47
2018-08-20T08:34:13.152Z,70.89
2018-08-20T08:35:13.154Z,71.28
2018-08-20T08:36:13.120Z,70.79
2018-08-20T08:37:13.140Z,71.08
2018-08-20T08:38:13.086Z,70.11
2018-08-20T08:39:13.104Z,70.01
2018-08-20T08:40:13.042Z,69.08
2018-08-20T08:41:13.025Z,69.08
2018-08-20T08:42:13.047Z,68.89
2018-08-20T08:43:13.030Z,68.24
2018-08-20T08:44:13.005Z,67.85
2018-08-20T08:45:12.957Z,67.66
2018-08-20T08:46:12.930Z,67.37
2018-08-20T08:47:12.914Z,67.66
2018-08-20T08:48:12.929Z,68.73
2018-08-20T08:49:12.874Z,68.24
2018-08-20T08:50:12.898Z,68.34
2018-08-20T08:51:12.834Z,67.76
2018-08-20T08:52:12.824Z,67.76
2018-08-20T08:53:12.937Z,67.76
2018-08-20T08:54:12.781Z,67.37
2018-08-20T08:55:12.764Z,67.69
2018-08-20T08:56:12.745Z,66.92
2018-08-20T08:57:12.728Z,67.31
2018-08-20T08:58:12.773Z,65.95
2018-08-20T08:59:12.691Z,66.44
2018-08-20T09:00:12.669Z,65.66
2018-08-20T09:01:12.661Z,65.40
2018-08-20T09:02:12.638Z,65.59
2018-08-20T09:03:12.698Z,65.69
2018-08-20T09:04:12.598Z,65.30
2018-08-20T09:05:12.580Z,65.01
2018-08-20T09:06:12.560Z,65.79
2018-08-20T09:07:12.549Z,65.69
2018-08-20T09:08:12.599Z,65.01
2018-08-20T09:09:12.511Z,65.33
2018-08-20T09:10:13.416Z,65.11
2018-08-20T09:11:12.476Z,65.40
2018-08-20T09:12:12.462Z,64.92
2018-08-20T09:13:12.490Z,64.53
2018-08-20T09:14:12.493Z,64.92
2018-08-20T09:15:12.402Z,65.89
2018-08-20T09:16:12.388Z,65.89
2018-08-20T09:17:12.369Z,65.30
2018-08-20T09:18:12.355Z,65.01
2018-08-20T09:19:12.376Z,65.01
2018-08-20T09:20:12.361Z,65.05
2018-08-20T09:21:12.363Z,64.72
2018-08-20T09:22:12.284Z,65.11
2018-08-20T09:23:12.270Z,64.72
2018-08-20T09:24:12.250Z,64.72
2018-08-20T09:25:12.274Z,64.62
2018-08-20T09:26:12.257Z,64.72
2018-08-20T09:27:12.193Z,64.56
2018-08-20T09:28:12.177Z,65.14
2018-08-20T09:29:12.165Z,64.75
2018-08-20T09:30:12.142Z,63.78
2018-08-20T09:31:12.170Z,63.49
2018-08-20T09:32:12.130Z,63.98
2018-08-20T09:33:12.096Z,63.78
2018-08-20T09:34:12.078Z,64.65
2018-08-20T09:35:12.053Z,64.17
2018-08-20T09:36:12.075Z,63.39
2018-08-20T09:37:12.025Z,63.49
2018-08-20T09:38:12.028Z,63.39
2018-08-20T09:39:11.996Z,63.68
2018-08-20T09:40:11.964Z,63.59
2018-08-20T09:41:11.993Z,63.49
2018-08-20T09:42:11.932Z,64.14
2018-08-20T09:43:11.918Z,64.04
2018-08-20T09:44:11.897Z,64.43
2018-08-20T09:45:11.916Z,65.17
2018-08-20T09:46:11.923Z,64.88
2018-08-20T09:47:11.843Z,65.37
2018-08-20T09:48:11.823Z,64.95
2018-08-20T09:49:11.811Z,65.63
2018-08-20T09:50:11.791Z,66.47
2018-08-20T09:51:11.819Z,67.34
2018-08-20T09:52:11.760Z,67.88
2018-08-20T09:53:11.744Z,68.85
2018-08-20T09:54:11.720Z,68.66
2018-08-20T09:55:12.317Z,68.47
2018-08-20T09:56:11.726Z,68.95
2018-08-20T09:57:11.667Z,69.05
2018-08-20T09:58:11.749Z,68.85
2018-08-20T09:59:11.677Z,69.34
2018-08-20T10:00:11.608Z,69.15
2018-08-20T10:01:11.585Z,68.85
2018-08-20T10:02:11.567Z,68.47
2018-08-20T10:03:11.601Z,68.47
2018-08-20T10:04:11.532Z,68.66
2018-08-20T10:05:11.513Z,68.95
2018-08-20T10:06:11.493Z,69.15
2018-08-20T10:07:11.530Z,69.50
2018-08-20T10:08:11.451Z,69.40
2018-08-20T10:09:11.434Z,69.53
2018-08-20T10:10:11.418Z,69.53
2018-08-20T10:11:11.395Z,69.34
2018-08-20T10:12:11.420Z,69.92
2018-08-20T10:13:11.362Z,70.18
2018-08-20T10:14:11.343Z,69.53
2018-08-20T10:15:11.318Z,69.53
2018-08-20T10:16:11.336Z,69.53
2018-08-20T10:17:11.322Z,69.43
2018-08-20T10:18:11.297Z,69.24
2018-08-20T10:19:11.315Z,69.34
2018-08-20T10:20:11.224Z,68.50
2018-08-20T10:21:11.205Z,68.79
2018-08-20T10:22:11.182Z,68.89
2018-08-20T10:23:11.167Z,67.82
2018-08-20T10:24:11.474Z,67.37
2018-08-20T10:25:11.127Z,66.79
2018-08-20T10:26:11.107Z,66.72
2018-08-20T10:27:11.095Z,66.05
2018-08-20T10:28:11.087Z,65.17
2018-08-20T10:29:11.097Z,65.08
2018-08-20T10:30:11.038Z,64.30
2018-08-20T10:31:11.016Z,64.23
2018-08-20T10:32:11.101Z,64.43
2018-08-20T10:33:10.977Z,63.95
2018-08-20T10:34:11.004Z,63.56
2018-08-20T10:35:10.943Z,63.68
2018-08-20T10:36:10.969Z,63.10
2018-08-20T10:37:10.917Z,63.29
2018-08-20T10:38:10.889Z,63.01
2018-08-20T10:39:10.906Z,63.20
2018-08-20T10:40:10.861Z,63.49
2018-08-20T10:41:10.879Z,63.17
2018-08-20T10:42:10.822Z,63.17
2018-08-20T10:43:10.803Z,63.20
2018-08-20T10:44:10.790Z,62.78
2018-08-20T10:45:10.767Z,63.36
2018-08-20T10:46:10.796Z,62.88
2018-08-20T10:47:10.728Z,63.75
2018-08-20T10:48:10.711Z,63.75
2018-08-20T10:49:10.696Z,63.95
2018-08-20T10:50:11.554Z,63.95
2018-08-20T10:51:10.704Z,64.23
2018-08-20T10:52:10.677Z,64.33
2018-08-20T10:53:10.622Z,65.08
2018-08-20T10:54:10.607Z,65.01
2018-08-20T10:55:10.587Z,65.17
2018-08-20T10:56:10.612Z,65.27
2018-08-20T10:57:10.556Z,64.88
2018-08-20T10:58:10.535Z,65.37
2018-08-20T10:59:10.564Z,65.37
2018-08-20T11:00:10.505Z,65.08
2018-08-20T11:01:10.519Z,65.95
2018-08-20T11:02:10.558Z,65.92
2018-08-20T11:03:10.449Z,66.44
2018-08-20T11:04:10.451Z,66.40
2018-08-20T11:05:10.453Z,66.50
2018-08-20T11:06:10.396Z,66.44
2018-08-20T11:07:10.372Z,66.60
2018-08-20T11:08:10.353Z,66.40
2018-08-20T11:09:10.360Z,66.50
2018-08-20T11:10:10.379Z,66.40
2018-08-20T11:11:10.299Z,66.60
2018-08-20T11:12:10.280Z,66.79
2018-08-20T11:13:10.261Z,67.37
2018-08-20T11:14:10.242Z,66.95
2018-08-20T11:15:10.266Z,67.92
2018-08-20T11:16:10.204Z,67.88
2018-08-20T11:17:10.491Z,68.47
2018-08-20T11:18:10.214Z,68.47
2018-08-20T11:19:10.163Z,68.95
2018-08-20T11:20:10.163Z,69.92
2018-08-20T11:21:10.130Z,69.98
2018-08-20T11:22:10.096Z,69.79
2018-08-20T11:23:10.119Z,70.08
2018-08-20T11:24:10.062Z,69.98
2018-08-20T11:25:10.038Z,69.79
2018-08-20T11:26:10.017Z,70.56
2018-08-20T11:27:09.998Z,70.66
2018-08-20T11:28:10.020Z,70.56
2018-08-20T11:29:09.966Z,70.86
2018-08-20T11:30:09.961Z,70.95
2018-08-20T11:31:09.922Z,71.20
2018-08-20T11:32:09.961Z,71.30
2018-08-20T11:33:09.880Z,71.20
2018-08-20T11:34:09.862Z,71.20
2018-08-20T11:35:10.354Z,71.40
2018-08-20T11:36:09.828Z,71.20
2018-08-20T11:37:09.843Z,71.20
2018-08-20T11:38:09.781Z,72.08
2018-08-20T11:39:09.856Z,71.98
2018-08-20T11:40:09.789Z,72.27
2018-08-20T11:41:09.769Z,72.17
2018-08-20T11:42:09.708Z,72.08
2018-08-20T11:43:10.512Z,71.69
2018-08-20T11:44:09.662Z,71.40
2018-08-20T11:45:09.645Z,71.34
2018-08-20T11:46:09.669Z,70.95
2018-08-20T11:47:09.608Z,70.66
2018-08-20T11:48:09.582Z,70.56
2018-08-20T11:49:09.707Z,69.92
2018-08-20T11:50:09.545Z,70.11
2018-08-20T11:51:09.534Z,69.73
2018-08-20T11:52:09.506Z,69.15
2018-08-20T11:53:09.487Z,69.43
2018-08-20T11:54:09.526Z,69.08
2018-08-20T11:55:09.464Z,68.50
2018-08-20T11:56:09.428Z,68.60
2018-08-20T11:57:09.413Z,67.95
2018-08-20T11:58:09.392Z,68.44
2018-08-20T11:59:10.365Z,67.40
2018-08-20T12:00:09.399Z,67.31
2018-08-20T12:01:09.343Z,67.11
2018-08-20T12:02:09.317Z,67.27
2018-08-20T12:03:09.300Z,67.21
2018-08-20T12:04:09.278Z,66.89
2018-08-20T12:05:09.302Z,66.89
2018-08-20T12:06:09.243Z,66.99
2018-08-20T12:07:09.238Z,67.18
2018-08-20T12:08:09.216Z,66.99
2018-08-20T12:09:09.188Z,67.76
2018-08-20T12:10:09.222Z,67.18
2018-08-20T12:11:09.147Z,67.37
2018-08-20T12:12:09.173Z,67.63
2018-08-20T12:13:09.113Z,67.82
2018-08-20T12:14:09.092Z,68.89
2018-08-20T12:15:09.078Z,68.79
2018-08-20T12:16:09.101Z,68.79
2018-08-20T12:17:09.993Z,69.05
2018-08-20T12:18:09.025Z,69.82
2018-08-20T12:19:09.535Z,70.01
2018-08-20T12:20:08.977Z,69.63
2018-08-20T12:21:08.963Z,70.60
2018-08-20T12:22:08.972Z,70.56
2018-08-20T12:23:08.942Z,70.56
2018-08-20T12:24:08.947Z,70.76
2018-08-20T12:25:09.457Z,70.95
2018-08-20T12:26:08.875Z,70.66
2018-08-20T12:27:08.846Z,70.95
2018-08-20T12:28:09.097Z,70.76
2018-08-20T12:29:08.820Z,70.56
2018-08-20T12:30:08.790Z,70.50
2018-08-20T12:31:08.774Z,69.89
2018-08-20T12:32:09.011Z,69.92
2018-08-20T12:33:09.020Z,69.82
2018-08-20T12:34:08.728Z,69.92
2018-08-20T12:35:08.736Z,69.92
2018-08-20T12:36:08.669Z,70.01
2018-08-20T12:37:08.647Z,69.92
2018-08-20T12:38:08.689Z,69.27
2018-08-20T12:39:08.612Z,70.01
2018-08-20T12:40:08.666Z,69.37
2018-08-20T12:41:08.570Z,69.47
2018-08-20T12:42:08.555Z,69.67
2018-08-20T12:43:08.583Z,69.57
2018-08-20T12:44:08.515Z,68.50
2018-08-20T12:45:08.503Z,68.70
2018-08-20T12:46:08.476Z,68.89
2018-08-20T12:47:08.508Z,68.79
2018-08-20T12:48:08.662Z,68.60
2018-08-20T12:49:08.468Z,68.50
2018-08-20T12:50:08.402Z,68.79
2018-08-20T12:51:08.381Z,69.18
2018-08-20T12:52:08.402Z,69.47